Time;durP1;ratioP1;P1;durP2;ratioP2;P2;SDS_P1;SDS_P2;PMS_P1;PMS_P2;Temp;Humidity;BMP_temperature;BMP_pressure;BME280_temperature;BME280_humidity;BME280_pressure;Samples;Min_cycle;Max_cycle;Signal;HPM_P1;HPM_P2
2022/04/01 00:01:22;;;;;;;69.70;50.30;;;;;;;;;;4993109;28;20561;-60
2022/04/01 00:03:49;;;;;;;69.67;51.90;;;;;;;;;;4993413;28;20903;-59
2022/04/01 00:06:15;;;;;;;72.85;51.13;;;;;;;;;;4993148;28;20546;-59
2022/04/01 00:08:41;;;;;;;78.00;54.17;;;;;;;;;;4993379;28;20220;-56
2022/04/01 00:11:07;;;;;;;81.75;53.42;;;;;;;;;;4992996;28;20425;-58
2022/04/01 00:13:32;;;;;;;84.30;56.63;;;;;;;;;;4993247;28;20192;-53
2022/04/01 00:15:59;;;;;;;80.93;55.30;;;;;;;;;;4993023;28;20514;-56
2022/04/01 00:18:25;;;;;;;78.30;52.15;;;;;;;;;;4993164;28;20428;-58
2022/04/01 00:20:51;;;;;;;80.40;51.97;;;;;;;;;;4992724;28;20174;-59
2022/04/01 00:23:17;;;;;;;83.07;51.88;;;;;;;;;;4992968;28;20170;-58
2022/04/01 00:25:43;;;;;;;82.85;54.38;;;;;;;;;;4992900;28;20627;-58
2022/04/01 00:28:10;;;;;;;84.90;54.20;;;;;;;;;;4992985;28;20271;-58
2022/04/01 00:30:38;;;;;;;78.93;51.72;;;;;;;;;;4992617;28;20507;-60
2022/04/01 00:33:05;;;;;;;75.60;50.42;;;;;;;;;;4992800;28;20188;-59
2022/04/01 00:35:32;;;;;;;73.47;50.40;;;;;;;;;;4992821;28;20647;-60
2022/04/01 00:37:58;;;;;;;75.03;51.65;;;;;;;;;;4992897;28;20215;-59
2022/04/01 00:40:24;;;;;;;77.05;52.75;;;;;;;;;;4992520;28;20172;-57
2022/04/01 00:42:50;;;;;;;81.32;52.95;;;;;;;;;;4992633;28;20212;-58
2022/04/01 00:45:16;;;;;;;58.95;47.75;;;;;;;;;;4992496;28;20308;-60
2022/04/01 00:47:42;;;;;;;71.70;51.38;;;;;;;;;;4992636;28;20257;-59
2022/04/01 00:50:09;;;;;;;81.57;56.88;;;;;;;;;;4992341;28;20548;-59
2022/04/01 00:52:36;;;;;;;76.38;53.53;;;;;;;;;;4992536;28;20236;-60
2022/04/01 00:55:02;;;;;;;77.65;54.58;;;;;;;;;;4992473;28;20266;-58
2022/04/01 00:57:28;;;;;;;72.10;53.22;;;;;;;;;;4992501;28;20286;-59
2022/04/01 00:59:54;;;;;;;72.32;52.17;;;;;;;;;;4992317;28;20272;-60
2022/04/01 01:02:20;;;;;;;78.00;51.72;;;;;;;;;;4992128;28;20331;-58
2022/04/01 01:04:46;;;;;;;53.97;48.38;;;;;;;;;;4992192;28;20580;-59
2022/04/01 01:07:13;;;;;;;55.17;47.03;;;;;;;;;;4992377;28;20215;-60
2022/04/01 01:09:39;;;;;;;79.95;50.83;;;;;;;;;;4992201;28;20177;-57
2022/04/01 01:12:06;;;;;;;81.95;51.72;;;;;;;;;;4991967;28;20759;-59
2022/04/01 01:14:34;;;;;;;74.82;50.03;;;;;;;;;;4992097;28;20179;-60
2022/04/01 01:17:01;;;;;;;72.75;48.78;;;;;;;;;;4992223;28;20172;-57
2022/04/01 01:19:29;;;;;;;78.10;50.67;;;;;;;;;;4992100;28;20176;-60
2022/04/01 01:21:56;;;;;;;77.25;49.88;;;;;;;;;;4991799;28;20245;-59
2022/04/01 01:24:31;;;;;;;77.63;51.42;;;;;;;;;;4992064;28;20183;-58
2022/04/01 01:26:58;;;;;;;79.90;52.65;;;;;;;;;;4991983;28;20177;-59
2022/04/01 01:29:28;;;;;;;74.50;49.03;;;;;;;;;;4991671;28;20188;-59
2022/04/01 01:31:55;;;;;;;72.30;50.50;;;;;;;;;;4991519;28;20182;-59
2022/04/01 01:34:21;;;;;;;77.13;50.13;;;;;;;;;;4992165;28;20182;-59
2022/04/01 01:36:48;;;;;;;75.80;49.25;;;;;;;;;;4992099;28;20234;-59
2022/04/01 01:39:14;;;;;;;83.95;54.45;;;;;;;;;;4991906;28;20176;-60
2022/04/01 01:41:40;;;;;;;78.43;52.88;;;;;;;;;;4993618;28;20628;-59
2022/04/01 01:44:06;;;;;;;75.15;51.88;;;;;;;;;;4991919;28;20192;-56
2022/04/01 01:46:34;;;;;;;69.68;49.17;;;;;;;;;;4991726;28;20205;-60
2022/04/01 01:49:00;;;;;;;71.32;49.28;;;;;;;;;;4991904;28;20543;-58
2022/04/01 01:56:55;;;;;;;72.28;48.78;;;;;;;;;;4991758;28;20235;-55
2022/04/01 01:59:21;;;;;;;76.80;51.20;;;;;;;;;;4991794;28;20179;-59
2022/04/01 02:01:47;;;;;;;69.80;49.60;;;;;;;;;;4991612;28;20838;-58
2022/04/01 02:04:13;;;;;;;71.20;49.83;;;;;;;;;;4991689;28;20173;-59
2022/04/01 02:06:39;;;;;;;80.67;54.13;;;;;;;;;;4991669;28;20484;-56
2022/04/01 02:09:05;;;;;;;77.10;50.67;;;;;;;;;;4991623;28;20543;-58
2022/04/01 02:11:32;;;;;;;72.75;49.88;;;;;;;;;;4991412;28;20927;-58
2022/04/01 02:13:58;;;;;;;75.97;49.00;;;;;;;;;;4991644;28;20262;-56
2022/04/01 02:16:24;;;;;;;75.70;50.65;;;;;;;;;;4991552;28;20692;-57
2022/04/01 02:18:50;;;;;;;79.40;54.13;;;;;;;;;;4991637;28;20256;-55
2022/04/01 02:21:17;;;;;;;75.05;49.92;;;;;;;;;;4991961;28;20203;-59
2022/04/01 02:23:44;;;;;;;74.47;52.20;;;;;;;;;;4995239;28;20183;-57
2022/04/01 02:26:11;;;;;;;68.68;50.65;;;;;;;;;;4995629;28;20198;-58
2022/04/01 02:28:37;;;;;;;70.10;48.47;;;;;;;;;;4995233;28;20172;-57
2022/04/01 02:31:04;;;;;;;74.57;49.15;;;;;;;;;;4994836;28;20549;-57
2022/04/01 02:33:31;;;;;;;76.20;50.88;;;;;;;;;;4995202;28;20725;-59
2022/04/01 02:35:57;;;;;;;72.55;48.80;;;;;;;;;;4994976;28;20205;-59
2022/04/01 02:38:25;;;;;;;69.95;49.72;;;;;;;;;;4994959;28;20271;-59
2022/04/01 02:40:51;;;;;;;73.10;51.15;;;;;;;;;;4994643;28;20727;-58
2022/04/01 02:43:17;;;;;;;71.80;48.83;;;;;;;;;;4994944;28;20266;-59
2022/04/01 02:45:43;;;;;;;72.70;49.57;;;;;;;;;;4994846;28;20423;-59
2022/04/01 02:48:09;;;;;;;64.20;46.73;;;;;;;;;;4994849;28;20926;-60
2022/04/01 02:50:35;;;;;;;76.07;54.00;;;;;;;;;;4994572;28;20463;-60
2022/04/01 02:53:01;;;;;;;65.43;46.73;;;;;;;;;;4994618;28;20411;-55
2022/04/01 02:55:27;;;;;;;72.23;51.33;;;;;;;;;;4995082;28;20436;-60
2022/04/01 02:57:53;;;;;;;74.47;52.37;;;;;;;;;;4996717;28;20412;-59
2022/04/01 03:00:21;;;;;;;74.07;55.03;;;;;;;;;;4994457;28;20908;-58
2022/04/01 03:02:48;;;;;;;70.90;48.50;;;;;;;;;;4994619;28;20461;-57
2022/04/01 03:05:14;;;;;;;61.90;48.58;;;;;;;;;;4994381;28;20218;-59
2022/04/01 03:07:40;;;;;;;64.18;50.28;;;;;;;;;;4994420;28;20177;-57
2022/04/01 03:10:06;;;;;;;51.80;46.57;;;;;;;;;;4994331;28;20669;-58
2022/04/01 03:12:32;;;;;;;70.30;48.22;;;;;;;;;;4994350;28;20424;-58
2022/04/01 03:14:58;;;;;;;72.10;50.87;;;;;;;;;;4994267;28;20280;-59
2022/04/01 03:17:24;;;;;;;49.50;44.10;;;;;;;;;;4994346;28;20472;-58
2022/04/01 03:19:50;;;;;;;51.97;46.57;;;;;;;;;;4994193;28;20824;-57
2022/04/01 03:22:16;;;;;;;48.70;43.40;;;;;;;;;;4993861;28;20980;-60
2022/04/01 03:24:42;;;;;;;48.78;43.58;;;;;;;;;;4994089;28;20481;-58
2022/04/01 03:27:08;;;;;;;48.28;43.05;;;;;;;;;;4994193;28;20173;-60
2022/04/01 03:29:34;;;;;;;48.20;41.70;;;;;;;;;;4994035;28;20268;-59
2022/04/01 03:32:00;;;;;;;51.40;45.10;;;;;;;;;;4993779;28;20851;-60
2022/04/01 03:34:26;;;;;;;51.90;46.37;;;;;;;;;;4992905;28;20260;-61
2022/04/01 03:36:54;;;;;;;49.97;44.80;;;;;;;;;;4993884;28;20761;-60
2022/04/01 03:39:21;;;;;;;46.53;41.80;;;;;;;;;;4993899;28;20181;-58
2022/04/01 03:41:49;;;;;;;46.25;41.47;;;;;;;;;;4993481;28;20200;-60
2022/04/01 03:44:15;;;;;;;49.05;43.78;;;;;;;;;;4993518;28;20227;-57
2022/04/01 03:46:50;;;;;;;48.08;42.55;;;;;;;;;;4993732;28;20208;-60
2022/04/01 03:49:21;;;;;;;47.00;40.97;;;;;;;;;;4993711;28;20232;-60
2022/04/01 03:51:49;;;;;;;45.65;40.75;;;;;;;;;;4993607;28;20189;-60
2022/04/01 03:54:15;;;;;;;45.92;41.28;;;;;;;;;;4993665;28;20188;-60
2022/04/01 03:56:44;;;;;;;43.53;39.03;;;;;;;;;;4993430;28;20205;-59
2022/04/01 03:59:13;;;;;;;45.78;41.30;;;;;;;;;;4993681;28;20181;-59
2022/04/01 04:01:39;;;;;;;44.40;39.70;;;;;;;;;;4993167;28;20281;-60
2022/04/01 04:04:06;;;;;;;45.20;40.70;;;;;;;;;;4993527;28;20212;-59
2022/04/01 04:06:34;;;;;;;36.80;33.60;;;;;;;;;;4993173;28;20458;-60
2022/04/01 04:09:01;;;;;;;41.13;37.15;;;;;;;;;;4993295;28;20518;-61
2022/04/01 04:11:31;;;;;;;51.42;46.28;;;;;;;;;;4992954;28;20670;-58
2022/04/01 04:13:57;;;;;;;47.28;42.58;;;;;;;;;;4993205;28;20204;-60
2022/04/01 04:16:31;;;;;;;45.65;40.85;;;;;;;;;;4993145;28;20204;-60
2022/04/01 04:18:57;;;;;;;43.70;39.50;;;;;;;;;;4993146;28;20336;-60
2022/04/01 04:21:30;;;;;;;47.07;42.17;;;;;;;;;;4992871;28;20209;-59
2022/04/01 04:23:58;;;;;;;44.67;40.03;;;;;;;;;;4992959;28;20407;-60
2022/04/01 04:26:29;;;;;;;48.13;43.05;;;;;;;;;;4992949;28;20272;-58
2022/04/01 04:29:00;;;;;;;50.55;45.13;;;;;;;;;;4992913;28;20251;-58
2022/04/01 04:31:26;;;;;;;49.70;44.40;;;;;;;;;;4992809;28;20175;-59
2022/04/01 04:33:55;;;;;;;48.38;43.22;;;;;;;;;;4992899;28;20672;-59
2022/04/01 04:36:24;;;;;;;50.35;43.05;;;;;;;;;;4992696;28;20207;-59
2022/04/01 04:38:53;;;;;;;46.75;40.70;;;;;;;;;;4992808;28;20268;-59
2022/04/01 04:41:20;;;;;;;50.97;44.40;;;;;;;;;;4992483;28;20270;-60
2022/04/01 04:43:47;;;;;;;42.05;37.95;;;;;;;;;;4992347;28;20177;-59
2022/04/01 04:46:14;;;;;;;50.47;40.95;;;;;;;;;;4992534;28;20699;-60
2022/04/01 04:48:41;;;;;;;46.67;41.80;;;;;;;;;;4992689;28;20224;-58
2022/04/01 04:51:09;;;;;;;55.13;46.35;;;;;;;;;;4992271;28;20241;-58
2022/04/01 04:53:36;;;;;;;74.80;49.85;;;;;;;;;;4992525;28;20198;-60
2022/04/01 04:56:03;;;;;;;77.32;48.33;;;;;;;;;;4992530;28;20220;-60
2022/04/01 04:58:31;;;;;;;76.85;50.05;;;;;;;;;;4992471;28;20177;-60
2022/04/01 05:01:01;;;;;;;76.75;47.05;;;;;;;;;;4996729;28;20668;-61
2022/04/01 05:03:44;;;;;;;71.55;47.90;;;;;;;;;;4992442;28;20176;-60
2022/04/01 05:06:11;;;;;;;64.82;44.00;;;;;;;;;;4992724;28;20733;-59
2022/04/01 05:08:55;;;;;;;71.07;45.38;;;;;;;;;;4992300;28;20204;-58
2022/04/01 05:11:26;;;;;;;73.25;48.45;;;;;;;;;;4992127;28;20187;-57
2022/04/01 05:13:58;;;;;;;76.93;48.78;;;;;;;;;;4992195;28;20180;-59
2022/04/01 05:16:31;;;;;;;80.55;50.95;;;;;;;;;;4992139;28;20201;-57
2022/04/01 05:19:02;;;;;;;71.68;47.78;;;;;;;;;;4992100;28;20259;-60
2022/04/01 05:21:31;;;;;;;79.30;48.67;;;;;;;;;;4991820;28;20286;-57
2022/04/01 05:24:01;;;;;;;70.88;45.20;;;;;;;;;;4992162;28;20202;-55
2022/04/01 05:26:40;;;;;;;72.80;46.60;;;;;;;;;;4991916;28;20684;-58
2022/04/01 05:29:13;;;;;;;74.57;48.85;;;;;;;;;;4992216;28;20238;-59
2022/04/01 05:31:55;;;;;;;65.82;43.55;;;;;;;;;;5030216;23;20234;-62
2022/04/01 05:34:22;;;;;;;67.90;47.25;;;;;;;;;;5004858;28;20176;-62
2022/04/01 05:36:50;;;;;;;64.00;44.13;;;;;;;;;;5011484;28;20254;-62
2022/04/01 05:39:16;;;;;;;67.47;48.75;;;;;;;;;;5011659;28;20514;-62
2022/04/01 05:41:42;;;;;;;78.00;51.80;;;;;;;;;;5011220;28;20718;-62
2022/04/01 05:44:09;;;;;;;78.40;51.22;;;;;;;;;;5011374;28;20664;-61
2022/04/01 05:46:36;;;;;;;75.95;47.92;;;;;;;;;;5011299;28;20175;-62
2022/04/01 05:49:03;;;;;;;76.43;51.08;;;;;;;;;;5011401;28;20577;-61
2022/04/01 05:51:30;;;;;;;77.72;51.67;;;;;;;;;;5011220;28;20198;-62
2022/04/01 05:53:57;;;;;;;74.55;50.03;;;;;;;;;;5011389;28;20387;-61
2022/04/01 05:56:23;;;;;;;77.22;52.28;;;;;;;;;;5012125;28;20188;-62
2022/04/01 05:58:49;;;;;;;76.90;48.33;;;;;;;;;;5015404;28;20176;-61
2022/04/01 06:01:25;;;;;;;76.72;47.00;;;;;;;;;;5015075;28;20211;-63
2022/04/01 06:04:10;;;;;;;73.55;48.78;;;;;;;;;;5015569;28;20521;-61
2022/04/01 06:06:42;;;;;;;78.78;49.72;;;;;;;;;;5015136;28;20170;-61
2022/04/01 06:09:13;;;;;;;81.30;50.65;;;;;;;;;;5015132;28;20276;-61
2022/04/01 06:11:43;;;;;;;81.85;51.13;;;;;;;;;;5014717;28;20230;-61
2022/04/01 06:14:18;;;;;;;84.32;52.40;;;;;;;;;;5015285;28;20193;-61
2022/04/01 06:16:45;;;;;;;83.50;53.38;;;;;;;;;;5015028;28;20171;-59
2022/04/01 06:19:24;;;;;;;85.35;53.60;;;;;;;;;;5015003;28;20184;-60
2022/04/01 06:22:06;;;;;;;81.65;53.00;;;;;;;;;;5014531;28;20602;-60
2022/04/01 06:24:37;;;;;;;76.10;51.70;;;;;;;;;;5014899;28;20188;-60
2022/04/01 06:27:03;;;;;;;80.32;53.17;;;;;;;;;;5015275;28;20719;-59
2022/04/01 06:29:31;;;;;;;79.90;52.75;;;;;;;;;;5014814;28;20186;-60
2022/04/01 06:32:00;;;;;;;76.45;49.63;;;;;;;;;;5014487;28;20697;-61
2022/04/01 06:34:33;;;;;;;76.03;49.72;;;;;;;;;;5014598;28;20174;-60
2022/04/01 06:37:02;;;;;;;79.13;50.47;;;;;;;;;;5014731;28;20186;-61
2022/04/01 06:39:37;;;;;;;79.28;50.90;;;;;;;;;;5014606;28;20259;-61
2022/04/01 06:42:05;;;;;;;82.28;53.80;;;;;;;;;;5014254;28;20199;-61
2022/04/01 06:44:31;;;;;;;76.43;51.03;;;;;;;;;;5014494;28;20179;-61
2022/04/01 06:46:57;;;;;;;77.07;50.30;;;;;;;;;;5014326;28;20180;-61
2022/04/01 06:49:23;;;;;;;80.27;52.40;;;;;;;;;;5014423;28;20407;-61
2022/04/01 06:51:49;;;;;;;79.45;52.92;;;;;;;;;;5013703;28;20531;-61
2022/04/01 06:54:15;;;;;;;82.07;55.90;;;;;;;;;;5014279;28;20298;-60
2022/04/01 06:56:41;;;;;;;83.10;51.97;;;;;;;;;;5014045;28;20279;-61
2022/04/01 06:59:07;;;;;;;85.45;53.15;;;;;;;;;;5014036;28;20955;-59
2022/04/01 07:01:34;;;;;;;84.40;52.20;;;;;;;;;;5013844;28;20202;-60
2022/04/01 07:04:00;;;;;;;87.72;54.90;;;;;;;;;;5014356;28;20407;-61
2022/04/01 07:06:26;;;;;;;89.93;54.90;;;;;;;;;;5014341;28;20334;-59
2022/04/01 07:08:52;;;;;;;81.20;51.67;;;;;;;;;;5013835;28;20419;-61
2022/04/01 07:11:19;;;;;;;81.97;53.07;;;;;;;;;;5013713;28;20208;-58
2022/04/01 07:13:45;;;;;;;83.35;52.85;;;;;;;;;;5014061;28;20493;-61
2022/04/01 07:16:13;;;;;;;80.30;50.95;;;;;;;;;;5014030;28;20184;-58
2022/04/01 07:18:39;;;;;;;83.82;51.58;;;;;;;;;;5014211;28;20602;-61
2022/04/01 07:21:05;;;;;;;88.38;52.25;;;;;;;;;;5013578;28;20195;-59
2022/04/01 07:23:32;;;;;;;88.68;51.45;;;;;;;;;;5014009;28;20254;-61
2022/04/01 07:25:58;;;;;;;85.35;53.35;;;;;;;;;;5013918;28;20172;-61
2022/04/01 07:28:25;;;;;;;85.88;52.95;;;;;;;;;;5012452;28;20185;-61
2022/04/01 07:30:51;;;;;;;81.78;50.25;;;;;;;;;;5012957;28;20307;-61
2022/04/01 07:33:18;;;;;;;89.38;52.35;;;;;;;;;;5013666;28;20179;-61
2022/04/01 07:35:47;;;;;;;86.53;51.90;;;;;;;;;;5013629;28;20548;-61
2022/04/01 07:38:13;;;;;;;87.88;54.63;;;;;;;;;;5013578;28;20176;-61
2022/04/01 07:40:39;;;;;;;88.97;52.72;;;;;;;;;;5013113;28;20203;-61
2022/04/01 07:43:05;;;;;;;87.60;54.22;;;;;;;;;;5013203;28;20208;-61
2022/04/01 07:45:33;;;;;;;81.63;49.88;;;;;;;;;;5013403;28;20176;-61
2022/04/01 07:47:59;;;;;;;85.50;51.95;;;;;;;;;;4998298;28;20652;-60
2022/04/01 07:50:25;;;;;;;88.20;53.88;;;;;;;;;;4993547;28;20189;-61
2022/04/01 07:52:51;;;;;;;83.40;48.30;;;;;;;;;;4993970;28;20201;-61
2022/04/01 07:55:17;;;;;;;86.57;51.58;;;;;;;;;;4993739;28;20446;-62
2022/04/01 07:57:44;;;;;;;93.00;58.58;;;;;;;;;;4996986;28;20231;-61
2022/04/01 08:00:11;;;;;;;82.68;51.63;;;;;;;;;;5022380;28;20548;-60
2022/04/01 08:02:37;;;;;;;76.10;49.67;;;;;;;;;;5013072;28;20693;-62
2022/04/01 08:05:03;;;;;;;79.90;48.03;;;;;;;;;;5012969;28;20198;-62
2022/04/01 08:07:29;;;;;;;74.57;47.83;;;;;;;;;;5012879;28;20173;-61
2022/04/01 08:09:57;;;;;;;74.75;46.95;;;;;;;;;;5012728;28;20197;-62
2022/04/01 08:12:23;;;;;;;70.93;45.28;;;;;;;;;;5012670;28;20179;-63
2022/04/01 08:14:49;;;;;;;71.37;44.90;;;;;;;;;;5012481;28;20181;-61
2022/04/01 08:17:15;;;;;;;70.00;47.33;;;;;;;;;;5012492;28;20450;-63
2022/04/01 08:19:42;;;;;;;71.65;47.65;;;;;;;;;;5011932;28;20410;-62
2022/04/01 08:22:08;;;;;;;84.78;51.17;;;;;;;;;;5012401;28;20198;-61
2022/04/01 08:24:34;;;;;;;76.25;46.90;;;;;;;;;;5012714;28;20592;-61
2022/04/01 08:27:00;;;;;;;77.90;48.53;;;;;;;;;;5012325;28;20183;-56
2022/04/01 08:29:30;;;;;;;78.72;49.00;;;;;;;;;;5012526;28;20554;-60
2022/04/01 08:31:56;;;;;;;82.60;51.50;;;;;;;;;;5011978;28;20213;-60
2022/04/01 08:34:22;;;;;;;75.97;54.45;;;;;;;;;;5012499;28;20185;-58
2022/04/01 08:36:48;;;;;;;80.95;51.78;;;;;;;;;;5012223;28;20210;-61
2022/04/01 08:39:14;;;;;;;81.50;51.27;;;;;;;;;;5012043;28;20283;-62
2022/04/01 08:41:40;;;;;;;77.87;49.87;;;;;;;;;;5010388;28;20480;-61
2022/04/01 08:44:06;;;;;;;83.53;48.33;;;;;;;;;;5011379;28;20412;-62
2022/04/01 08:46:33;;;;;;;84.90;50.38;;;;;;;;;;5012256;28;20172;-61
2022/04/01 08:48:59;;;;;;;84.78;50.53;;;;;;;;;;5012040;28;20173;-62
2022/04/01 08:51:26;;;;;;;74.32;45.30;;;;;;;;;;5010948;28;20197;-62
2022/04/01 08:53:52;;;;;;;80.32;48.67;;;;;;;;;;5010835;28;20201;-61
2022/04/01 08:56:19;;;;;;;78.47;47.17;;;;;;;;;;5010712;28;20232;-61
2022/04/01 08:58:45;;;;;;;84.45;50.53;;;;;;;;;;5010674;28;20497;-62
2022/04/01 09:01:13;;;;;;;81.30;52.28;;;;;;;;;;5012243;28;20580;-62
2022/04/01 09:03:39;;;;;;;73.07;49.13;;;;;;;;;;5010315;28;20264;-61
2022/04/01 09:06:06;;;;;;;69.03;44.00;;;;;;;;;;5011206;28;20266;-61
2022/04/01 09:08:42;;;;;;;62.25;45.83;;;;;;;;;;5011600;28;20407;-60
2022/04/01 09:11:14;;;;;;;63.63;44.63;;;;;;;;;;5010238;28;20643;-63
2022/04/01 09:13:43;;;;;;;61.47;46.50;;;;;;;;;;5010515;28;20166;-57
2022/04/01 09:16:21;;;;;;;61.80;44.53;;;;;;;;;;5011969;28;20171;-62
2022/04/01 09:18:48;;;;;;;75.10;49.45;;;;;;;;;;5011554;28;20180;-57
2022/04/01 09:21:14;;;;;;;74.78;48.22;;;;;;;;;;5011518;28;20195;-60
2022/04/01 09:23:45;;;;;;;78.30;48.97;;;;;;;;;;5012055;28;20590;-61
2022/04/01 09:26:11;;;;;;;75.07;46.22;;;;;;;;;;5011734;28;20200;-61
2022/04/01 09:28:41;;;;;;;72.40;46.57;;;;;;;;;;5010518;28;20217;-61
2022/04/01 09:31:09;;;;;;;77.28;49.25;;;;;;;;;;5009566;28;20473;-62
2022/04/01 09:33:45;;;;;;;79.22;51.00;;;;;;;;;;5010134;28;20180;-62
2022/04/01 09:36:12;;;;;;;76.13;47.88;;;;;;;;;;5010156;28;20183;-62
2022/04/01 09:38:38;;;;;;;83.30;51.88;;;;;;;;;;5010817;28;20172;-62
2022/04/01 09:41:06;;;;;;;81.27;49.40;;;;;;;;;;5010206;28;20555;-61
2022/04/01 09:43:38;;;;;;;75.97;49.22;;;;;;;;;;5010855;28;20426;-62
2022/04/01 09:46:05;;;;;;;74.78;49.85;;;;;;;;;;5011508;28;20179;-60
2022/04/01 09:48:39;;;;;;;78.20;49.67;;;;;;;;;;5011629;28;20196;-61
2022/04/01 09:51:05;;;;;;;78.80;47.38;;;;;;;;;;5011276;28;20203;-62
2022/04/01 09:53:31;;;;;;;82.60;49.40;;;;;;;;;;5011814;28;20181;-63
2022/04/01 09:55:57;;;;;;;83.35;50.10;;;;;;;;;;5011535;28;20424;-62
2022/04/01 09:58:23;;;;;;;80.97;49.95;;;;;;;;;;5010813;28;20555;-59
2022/04/01 10:00:51;;;;;;;80.40;48.33;;;;;;;;;;5010071;28;20199;-62
2022/04/01 10:03:19;;;;;;;77.80;48.97;;;;;;;;;;5010314;28;20454;-60
2022/04/01 10:05:45;;;;;;;76.20;46.88;;;;;;;;;;5010720;28;20226;-61
2022/04/01 10:08:12;;;;;;;75.28;47.38;;;;;;;;;;5011608;28;20177;-62
2022/04/01 10:10:39;;;;;;;80.63;49.67;;;;;;;;;;5011245;28;20191;-60
2022/04/01 10:13:06;;;;;;;78.47;50.08;;;;;;;;;;5011536;28;20180;-62
2022/04/01 10:15:32;;;;;;;78.18;46.60;;;;;;;;;;5011383;28;20191;-62
2022/04/01 10:17:59;;;;;;;85.32;51.75;;;;;;;;;;5011426;28;20183;-62
2022/04/01 10:20:45;;;;;;;70.75;46.53;;;;;;;;;;5011073;28;20204;-62
2022/04/01 10:23:12;;;;;;;76.50;44.70;;;;;;;;;;5011289;28;20206;-61
2022/04/01 10:25:38;;;;;;;80.53;51.20;;;;;;;;;;5011371;28;20184;-62
2022/04/01 10:28:05;;;;;;;82.72;51.33;;;;;;;;;;5011537;28;20172;-62
2022/04/01 10:30:32;;;;;;;75.00;46.42;;;;;;;;;;5009968;28;20614;-60
2022/04/01 10:32:58;;;;;;;79.68;48.20;;;;;;;;;;5010302;28;20199;-61
2022/04/01 10:35:24;;;;;;;78.82;48.92;;;;;;;;;;5010036;28;20180;-62
2022/04/01 10:37:55;;;;;;;70.00;46.73;;;;;;;;;;5009347;28;20191;-60
2022/04/01 10:40:22;;;;;;;80.68;51.92;;;;;;;;;;5009836;28;20470;-61
2022/04/01 10:42:49;;;;;;;81.97;50.80;;;;;;;;;;5011452;28;20196;-61
2022/04/01 10:45:17;;;;;;;74.00;44.72;;;;;;;;;;5013357;28;20178;-62
2022/04/01 10:53:35;;;;;;;75.90;45.65;;;;;;;;;;5012389;28;20194;-62
2022/04/01 10:56:19;;;;;;;77.28;48.08;;;;;;;;;;5012382;28;20175;-62
2022/04/01 10:59:04;;;;;;;78.25;47.38;;;;;;;;;;5012899;28;20183;-62
2022/04/01 11:01:30;;;;;;;82.90;50.10;;;;;;;;;;5010359;28;20205;-61
2022/04/01 11:04:02;;;;;;;73.47;49.25;;;;;;;;;;5012705;28;20173;-62
2022/04/01 11:06:28;;;;;;;74.15;48.33;;;;;;;;;;5010659;28;20173;-61
2022/04/01 11:08:54;;;;;;;78.97;51.13;;;;;;;;;;5012721;28;20657;-61
2022/04/01 11:11:21;;;;;;;82.32;49.85;;;;;;;;;;5011425;28;20207;-62
2022/04/01 11:14:03;;;;;;;87.10;51.72;;;;;;;;;;5016625;28;20186;-62
2022/04/01 11:16:48;;;;;;;87.90;52.60;;;;;;;;;;5010792;28;20704;-61
2022/04/01 11:19:15;;;;;;;80.53;49.60;;;;;;;;;;5009950;28;20184;-62
2022/04/01 11:21:42;;;;;;;85.35;50.92;;;;;;;;;;5012056;28;20201;-62
2022/04/01 11:24:25;;;;;;;75.72;49.97;;;;;;;;;;5011299;28;20176;-60
2022/04/01 11:26:51;;;;;;;82.88;49.80;;;;;;;;;;5010162;28;20172;-62
2022/04/01 11:29:18;;;;;;;80.10;48.75;;;;;;;;;;5012318;28;20193;-62
2022/04/01 11:31:44;;;;;;;82.88;52.15;;;;;;;;;;5011968;28;20707;-62
2022/04/01 11:34:11;;;;;;;81.32;50.28;;;;;;;;;;5012219;28;20188;-62
2022/04/01 11:36:37;;;;;;;77.00;46.05;;;;;;;;;;5012397;28;20193;-62
2022/04/01 11:39:05;;;;;;;68.00;43.97;;;;;;;;;;5012151;28;20175;-61
2022/04/01 11:41:31;;;;;;;71.45;48.17;;;;;;;;;;5009384;28;20192;-61
2022/04/01 11:43:57;;;;;;;76.73;49.37;;;;;;;;;;5012007;28;20174;-62
2022/04/01 11:46:23;;;;;;;81.60;48.25;;;;;;;;;;5029199;22;20495;-60
2022/04/01 11:48:50;;;;;;;78.60;45.72;;;;;;;;;;5013144;28;20178;-61
2022/04/01 11:51:22;;;;;;;84.50;48.03;;;;;;;;;;5013107;28;20178;-60
2022/04/01 11:53:52;;;;;;;77.65;46.70;;;;;;;;;;5012434;28;20258;-59
2022/04/01 11:56:22;;;;;;;79.47;46.78;;;;;;;;;;5012789;28;20207;-61
2022/04/01 11:58:48;;;;;;;85.88;51.50;;;;;;;;;;5013167;28;20253;-61
2022/04/01 12:01:15;;;;;;;77.80;48.47;;;;;;;;;;5013067;28;20195;-60
2022/04/01 12:03:41;;;;;;;80.43;47.90;;;;;;;;;;5013054;28;20178;-62
2022/04/01 12:08:52;;;;;;;77.15;48.20;;;;;;;;;;5012525;28;20549;-61
2022/04/01 12:11:18;;;;;;;74.47;49.20;;;;;;;;;;5012602;28;20182;-61
2022/04/01 12:13:53;;;;;;;73.35;46.00;;;;;;;;;;5013154;28;20442;-61
2022/04/01 12:16:21;;;;;;;77.68;46.97;;;;;;;;;;5012711;28;20196;-60
2022/04/01 12:18:47;;;;;;;85.65;53.05;;;;;;;;;;5011594;28;20183;-60
2022/04/01 12:21:17;;;;;;;83.35;48.42;;;;;;;;;;5009879;28;20179;-61
2022/04/01 12:23:46;;;;;;;78.60;49.75;;;;;;;;;;5009378;28;20582;-61
2022/04/01 12:26:12;;;;;;;88.57;53.78;;;;;;;;;;5009175;28;20216;-59
2022/04/01 12:28:39;;;;;;;81.40;47.00;;;;;;;;;;5010413;28;20183;-58
2022/04/01 12:31:05;;;;;;;83.53;48.35;;;;;;;;;;5010301;28;20667;-61
2022/04/01 12:33:32;;;;;;;82.18;52.88;;;;;;;;;;5012790;28;20599;-60
2022/04/01 12:35:59;;;;;;;84.95;51.13;;;;;;;;;;5010380;28;20762;-61
2022/04/01 12:38:26;;;;;;;84.38;49.67;;;;;;;;;;5011201;28;20260;-61
2022/04/01 12:40:52;;;;;;;81.72;48.33;;;;;;;;;;5011871;28;20178;-61
2022/04/01 12:43:33;;;;;;;82.97;51.00;;;;;;;;;;5012116;28;20211;-61
2022/04/01 12:46:05;;;;;;;84.45;49.08;;;;;;;;;;5012069;28;20985;-61
2022/04/01 12:48:31;;;;;;;88.88;55.30;;;;;;;;;;5009213;28;20232;-61
2022/04/01 12:50:58;;;;;;;75.60;48.42;;;;;;;;;;5008609;28;20213;-61
2022/04/01 12:53:24;;;;;;;81.55;51.45;;;;;;;;;;5008968;28;20185;-60
2022/04/01 12:55:50;;;;;;;80.70;49.03;;;;;;;;;;5008897;28;20564;-61
2022/04/01 12:58:16;;;;;;;81.53;50.50;;;;;;;;;;5008930;28;20183;-60
2022/04/01 13:00:43;;;;;;;80.75;49.60;;;;;;;;;;5009480;28;20403;-62
2022/04/01 13:03:09;;;;;;;80.40;48.83;;;;;;;;;;4992924;28;20201;-62
2022/04/01 13:05:35;;;;;;;84.20;50.63;;;;;;;;;;5007840;28;20544;-62
2022/04/01 13:08:01;;;;;;;77.18;46.63;;;;;;;;;;5010739;28;20647;-61
2022/04/01 13:10:27;;;;;;;75.68;45.90;;;;;;;;;;5010436;28;20200;-61
2022/04/01 13:12:55;;;;;;;80.15;47.90;;;;;;;;;;5010597;28;20175;-61
2022/04/01 13:15:23;;;;;;;78.05;45.92;;;;;;;;;;5010475;28;20190;-61
2022/04/01 13:17:53;;;;;;;75.90;46.95;;;;;;;;;;5010977;28;20209;-61
2022/04/01 13:20:27;;;;;;;81.65;54.58;;;;;;;;;;5007807;28;20181;-61
2022/04/01 13:22:53;;;;;;;74.13;45.67;;;;;;;;;;5010535;28;20206;-61
2022/04/01 13:25:19;;;;;;;79.55;51.38;;;;;;;;;;5009966;28;20205;-61
2022/04/01 13:27:46;;;;;;;76.70;49.13;;;;;;;;;;5010507;28;20265;-61
2022/04/01 13:30:13;;;;;;;85.10;53.40;;;;;;;;;;5007614;28;20238;-61
2022/04/01 13:32:39;;;;;;;88.78;54.25;;;;;;;;;;5010539;28;20177;-61
2022/04/01 13:35:07;;;;;;;79.60;50.63;;;;;;;;;;5010196;28;20180;-61
2022/04/01 13:37:33;;;;;;;78.95;51.25;;;;;;;;;;5007782;28;20409;-61
2022/04/01 13:40:00;;;;;;;69.83;47.80;;;;;;;;;;5010452;28;20174;-61
2022/04/01 13:42:26;;;;;;;80.03;49.92;;;;;;;;;;5009946;28;20460;-61
2022/04/01 13:44:52;;;;;;;86.70;54.10;;;;;;;;;;5010217;28;20181;-61
2022/04/01 13:47:19;;;;;;;81.07;49.67;;;;;;;;;;5010025;28;20476;-61
2022/04/01 13:49:45;;;;;;;80.57;47.92;;;;;;;;;;5010154;28;20177;-61
2022/04/01 13:52:11;;;;;;;80.40;50.70;;;;;;;;;;5007110;28;20315;-61
2022/04/01 13:54:39;;;;;;;88.03;52.53;;;;;;;;;;5010231;28;20188;-61
2022/04/01 13:57:05;;;;;;;80.80;47.78;;;;;;;;;;5010033;28;20430;-59
2022/04/01 13:59:31;;;;;;;77.40;47.22;;;;;;;;;;5007538;28;20625;-61
2022/04/01 14:01:57;;;;;;;87.18;52.28;;;;;;;;;;5009853;28;20654;-61
2022/04/01 14:04:23;;;;;;;83.45;52.65;;;;;;;;;;5010142;28;20262;-57
2022/04/01 14:06:50;;;;;;;85.67;51.80;;;;;;;;;;5009972;28;20928;-61
2022/04/01 14:09:16;;;;;;;89.00;53.47;;;;;;;;;;5010050;28;20492;-61
2022/04/01 14:11:42;;;;;;;83.80;49.53;;;;;;;;;;5009797;28;20184;-60
2022/04/01 14:14:08;;;;;;;86.45;50.10;;;;;;;;;;5010092;28;20254;-61
2022/04/01 14:16:35;;;;;;;84.32;50.83;;;;;;;;;;5009882;28;20189;-61
2022/04/01 14:19:03;;;;;;;88.60;51.85;;;;;;;;;;5013353;28;20184;-61
2022/04/01 14:21:29;;;;;;;87.68;52.15;;;;;;;;;;5013236;28;20698;-60
2022/04/01 14:23:55;;;;;;;84.00;51.83;;;;;;;;;;5013602;28;20672;-61
2022/04/01 14:26:21;;;;;;;83.18;49.85;;;;;;;;;;5013512;28;20278;-61
2022/04/01 14:28:47;;;;;;;85.27;53.20;;;;;;;;;;5013680;28;20204;-60
2022/04/01 14:31:14;;;;;;;82.77;51.30;;;;;;;;;;5013313;28;20408;-61
2022/04/01 14:33:40;;;;;;;80.75;52.38;;;;;;;;;;5013401;28;20466;-61